Temur Kvaratskhelia

Chefscout - Shukura
6 Aug 2028
Sonntag
Verarbeitung

Persönlichkeit

Anpassungsfähigkeit (14) Ehrgeiz (10) Kontroverse (7) Loyalität (19) Druck (14) Professionalität (13) Fairness (19) Temperament (11)

Profil

Trainerstil Demokratisch
Lizenz Kontinentale Pro
Entschlossenheit 7
Menschenführung 6
Motivation 7
Disziplin 8
Arbeitszufriedenheit
100%
Ermüdung
0%
Rolle Chefscout
Gehalt 29.9K p/W
Vertrag 14.03.2030

Leistung

Verhalten Gut
Trainingseffektivität
26%
Spielerentwicklung
35%
Verletzungsprävention
15%
Taktische Umsetzung
15%

Letzte Ereignisse

Nahm an einer Scouting-Besprechung teil 7T her
Nahm an einer Scouting-Besprechung teil 7T her
Spieler begutachtet 14T her
Nahm an einer Scouting-Besprechung teil 14T her
Nahm an einer Scouting-Besprechung teil 14T her
Nahm an einer Scouting-Besprechung teil 21T her
Nahm an einer Scouting-Besprechung teil 21T her
Legte dem Vorstand ein Dossier vor 28T her

Aktuell beobachtet

252
Spieler Verein Status Fähigkeit Vertrauen Beobachtet Zuletzt beobachtet Letzte Stimme
Emanuele Scipioni Monopoli Aktiv 103 / 93 40% 2 17.07.2028 -
John Kelly Fleetwood Town Aktiv 105 / 81 40% 3 17.07.2028 -
Emanuele Pecorino Catanzaro Aktiv 109 / 111 40% 1 17.07.2028 -
Aleksandre Mchedlidze Chikhura Verhandlung 62 / 53 65% 1 26.06.2028 -
Danny Butterworth Accrington Stanley Aktiv 103 / 93 40% 3 21.06.2028 -
Gianluca D'Auria Potenza Aktiv 98 / 103 40% 3 21.06.2028 -
Mirian Zoidze Dinamo Batumi Bericht bereit 74 / 55 65% 1 07.06.2028 -
Nika Dumbadze Dinamo Batumi Verhandlung 80 / 66 65% 1 01.06.2028 -
Emanuele Schimmenti Potenza Aktiv 119 / 101 40% 7 31.05.2028 -
Anthony Scully Shrewsbury Town Aktiv 112 / 120 40% 5 31.05.2028 -
Luca Hoole Shrewsbury Town Aktiv 98 / 123 40% 1 31.05.2028 -
Pol Valentín Cambridge United Aktiv 117 / 124 40% 1 31.05.2028 -
Job Ochieng Real Sociedad Aktiv 121 / 126 40% 3 29.05.2028 -
Layton Stewart Barnet Aktiv 112 / 117 40% 8 29.05.2028 -
Luca Mazzeo Picerno Aktiv 110 / 88 40% 1 29.05.2028 -
Joshua Ajala Walsall Aktiv 114 / 88 40% 3 28.05.2028 -
Marco Tumminello Benevento Aktiv 108 / 98 40% 6 28.05.2028 -
Aaron Collins Milton Keynes Dons Aktiv 125 / 129 40% 4 27.05.2028 -
Jack Vale Sorrento Aktiv 104 / 94 40% 8 27.05.2028 -
Nicola Rauti Vicenza Aktiv 120 / 117 40% 2 27.05.2028 -
Will Davies Fleetwood Town Aktiv 106 / 101 40% 3 26.05.2028 -
Ryan Graydon Salford City Aktiv 117 / 102 40% 4 26.05.2028 -
Gennaro Tutino Sampdoria Aktiv 125 / 125 40% 2 25.05.2028 -
Ichem Ferrah Livorno Aktiv 122 / 126 40% 3 25.05.2028 -
Tyrese Shade Burton Albion Aktiv 97 / 114 40% 2 22.05.2028 -
Giacomo Zecca Torres Aktiv 101 / 89 40% 2 21.05.2028 -
Mattia Tordini Crotone Aktiv 90 / 118 40% 3 21.05.2028 -
Calum Kavanagh Oldham Athletic Aktiv 109 / 115 40% 7 19.05.2028 -
Marcus Browne AFC Wimbledon Aktiv 114 / 116 40% 5 19.05.2028 -
Paolo Yrizar Chernomorets Aktiv 93 / 92 40% 7 18.05.2028 -
Mason Bennett Harrogate Town Aktiv 79 / 90 40% 1 17.05.2028 -
Kylian Kouassi Colchester United Aktiv 98 / 102 40% 2 16.05.2028 -
Matty Stevens AFC Wimbledon Aktiv 108 / 123 40% 5 14.05.2028 -
Dani Ángel Sampdoria Aktiv 89 / 124 40% 1 14.05.2028 -
Giuseppe Panico Foggia Aktiv 131 / 101 40% 3 10.05.2028 -
Louis Appéré Cambridge United Aktiv 107 / 123 40% 7 09.05.2028 -
David Okereke Cremonese Aktiv 118 / 146 40% 4 08.05.2028 -
Aaron Drinan Swindon Town Aktiv 117 / 115 40% 3 04.05.2028 -
Tyler Roberts Mansfield Town Aktiv 109 / 92 40% 1 04.05.2028 -
Kimarni Smith Newport County Aktiv 106 / 84 40% 4 03.05.2028 -
Ismail Achik Salernitana Aktiv 113 / 120 40% 2 30.04.2028 -
Luca Vido Union Brescia Aktiv 111 / 105 40% 1 28.04.2028 -
Igor Tyjon Barrow AFC Aktiv 126 / 134 40% 4 27.04.2028 -
Michele Emmausso Cosenza Aktiv 98 / 93 40% 2 27.04.2028 -
Leonardo Candellone Juve Stabia Aktiv 134 / 109 40% 1 27.04.2028 -
George Lloyd Shrewsbury Town Aktiv 98 / 82 40% 1 26.04.2028 -
Rushian Hepburn-Murphy Milton Keynes Dons Aktiv 96 / 83 40% 1 26.04.2028 -
Guillaume Furrer Lecco Aktiv 113 / 122 40% 1 24.04.2028 -
Nicolò Bruschi Ternana Aktiv 109 / 98 40% 1 24.04.2028 -
Marcelo Orellana Vis Pesaro Aktiv 109 / 103 40% 1 21.04.2028 -
Lamin Sillah Exeter City Aktiv 98 / 98 40% 2 18.04.2028 -
Alessandro Seghetti Campobasso Aktiv 125 / 116 40% 1 18.04.2028 -
Bashar Musa US Forces Armees Aktiv 79 / 83 40% 2 15.04.2028 -
Marcus Dinanga Bromley Aktiv 83 / 79 40% 1 15.04.2028 -
Gabriele Gori Ascoli Aktiv 115 / 132 40% 1 11.04.2028 -
Miguel Falé Pacos de Ferreira Aktiv 122 / 97 40% 2 09.04.2028 -
Adama Traoré Gazelle Garoua Aktiv 100 / 102 40% 2 03.04.2028 -
Matija Popović Fakel Aktiv 117 / 114 40% 2 30.03.2028 -
Louis Flower Crawley Town Aktiv 89 / 81 40% 2 29.03.2028 -
Admir Bristrić Cambridge United Aktiv 101 / 116 40% 1 28.03.2028 -
Said Aliev Rotor Aktiv 89 / 106 40% 2 24.03.2028 -
Facundo Lescano Salernitana Aktiv 113 / 108 40% 1 23.03.2028 -
Kamran Aliev SKA Khabarovsk Aktiv 101 / 118 40% 11 22.03.2028 -
Francesco Petito Dolomiti Bellunesi Aktiv 97 / 109 40% 2 22.03.2028 -
Axel Gnapi Dable Fakel Aktiv 97 / 103 40% 1 21.03.2028 -
Gonzalo Valenzuela Radnicki Nis Aktiv 108 / 91 40% 1 19.03.2028 -
Alexandr Saplinov Volga Aktiv 111 / 102 40% 4 14.03.2028 -
Surkhaikhan Abdullaev KAMAZ Aktiv 92 / 99 40% 1 13.03.2028 -
Youssef Dalouzi Renaissance Aktiv 99 / 85 40% 4 10.03.2028 -
Alan Cisnero Exeter City Aktiv 97 / 104 40% 2 10.03.2028 -
Aleksej Golijanin Sokol Aktiv 97 / 94 40% 5 05.03.2028 -
Javohir Esonqulov Merani Aktiv 99 / 109 40% 2 27.02.2028 -
Danil Karpov KAMAZ Aktiv 105 / 99 40% 1 24.02.2028 -
Sergio Riffo Kolkheti Aktiv 88 / 75 40% 10 22.02.2028 -
Tornike Mikautadze Tskhinvali Aktiv 100 / 95 40% 7 20.02.2028 -
Julen Cordero Samtredia Aktiv 90 / 96 40% 4 19.02.2028 -
Davit Kvaratskhelia Zugdidi Aktiv 77 / 70 40% 3 19.02.2028 -
Kirill Tsepenkov Dnepr Mogilev Aktiv 92 / 99 40% 2 14.02.2028 -
Gustavo Viera Cerro Largo Aktiv 101 / 89 40% 2 09.02.2028 -
Vladislav Sarveli Nizhniy Novgorod Aktiv 101 / 113 40% 1 09.02.2028 -
Wilman Moreira Irkutsk Aktiv 84 / 88 40% 1 09.02.2028 -
Bayéré Junior Loué Javor-Matis Aktiv 106 / 94 40% 1 08.02.2028 -
Zurab Museliani Dila Aktiv 100 / 86 40% 5 17.01.2028 -
Vyacheslav Grulev Nizhniy Novgorod Aktiv 105 / 101 40% 1 17.01.2028 -
Favio Cabral Mitre Aktiv 126 / 121 40% 1 30.12.2027 -
Abubakar Bonni Enyimba Aktiv 77 / 89 40% 8 29.12.2027 -
Luciano Riveros San Martín SJ Aktiv 119 / 108 40% 1 29.12.2027 -
Augustine Nwaorisa Enyimba Aktiv 104 / 99 40% 8 28.12.2027 -
Lucas Pedraza Defensores Unidos Aktiv 103 / 115 40% 1 28.12.2027 -
Gianluca Pugliese Güemes Aktiv 118 / 110 40% 1 27.12.2027 -
Mauro Valiente Estudiantes Aktiv 107 / 106 40% 1 27.12.2027 -
Otar Parulava Dila Aktiv 109 / 103 40% 1 25.12.2027 -
Antonio Napolitano Agropecuario Argentino Aktiv 116 / 134 40% 1 25.12.2027 -
Lautaro Gordillo Colegiales Aktiv 127 / 121 40% 1 25.12.2027 -
Daniel Barrea Godoy Cruz Aktiv 125 / 130 40% 1 25.12.2027 -
Alan Bonansea Colón Aktiv 124 / 127 40% 1 24.12.2027 -
Carlos Ramírez Zulia Aktiv 105 / 113 40% 2 21.12.2027 -
Dylan Cabral Arsenal Aktiv 111 / 89 40% 1 21.12.2027 -
Marco Miori Alvarado Aktiv 101 / 114 40% 1 18.12.2027 -
Sagir Arce Saburtalo Aktiv 99 / 111 40% 7 17.12.2027 -
Camilo Machado Madryn Aktiv 115 / 95 40% 6 17.12.2027 -
Juan David Rueda Alianza Petrolera Aktiv 121 / 100 40% 4 17.12.2027 -
Davit Gotsiridze Kolkheti Aktiv 79 / 77 40% 4 11.12.2027 -
Tosin Olawale El-Kanemi Warriors Aktiv 86 / 87 40% 4 11.12.2027 -
Owen Falconis Cerrito Aktiv 107 / 111 40% 2 09.12.2027 -
Matías Samaniego Talleres Aktiv 99 / 88 40% 1 06.12.2027 -
Luca Franco Arsenal Aktiv 115 / 113 40% 4 04.12.2027 -
Leonel Pollacchi San Telmo Aktiv 125 / 128 40% 2 28.11.2027 -
Beka Dartsmelia Saburtalo Aktiv 100 / 99 40% 2 28.11.2027 -
Giorgi Kveladze Samtredia Aktiv 89 / 93 40% 1 27.11.2027 -
Joel Ezra Enyimba Aktiv 88 / 80 40% 1 25.11.2027 -
Elías Peralta Lokomotivi Aktiv 89 / 111 40% 4 22.11.2027 -
Idris Ajiya Nasarawa United Aktiv 100 / 89 40% 4 20.11.2027 -
Paulo Vitor Dinamo Batumi Aktiv 107 / 107 40% 1 19.11.2027 -
Dato Mchedlidze Tskhinvali Aktiv 108 / 116 52% 4 / 1m 14.11.2027 -
Lautaro Núñez Alvarado Aktiv 89 / 85 40% 2 14.11.2027 -
Johan Campaña Patriotas Aktiv 105 / 107 40% 1 14.11.2027 -
Agustín Dávila Cerro Largo Aktiv 100 / 87 40% 1 09.11.2027 -
Joël Kabongo Lokomotivi Aktiv 106 / 90 40% 2 08.11.2027 -
Franco Bustamante Almagro Aktiv 100 / 111 40% 1 07.11.2027 -
Chimobi Igwilo Rangers International Aktiv 99 / 104 40% 1 03.11.2027 -
Benedek Simon Sioni Aktiv 86 / 85 40% 1 28.10.2027 -
Mateo Stamatov Torpedo Kutaisi Aktiv 103 / 114 40% 1 24.10.2027 -
Olawale Emmanuel Niger Tornadoes Aktiv 93 / 100 40% 1 17.10.2027 -
Alexey Antilevskiy Slavia Mozyr Aktiv 102 / 91 40% 1 10.10.2027 -
Sandro Altunashvili Dinamo Batumi Aktiv 105 / 100 40% 1 09.10.2027 -
Yeferson Rodallega Envigado Aktiv 116 / 113 40% 1 07.10.2027 -
Matej Šimić Torpedo Kutaisi Aktiv 94 / 87 40% 1 05.10.2027 -
Artem Mylchenko Dinamo Batumi Aktiv 113 / 99 40% 1 03.10.2027 -
Tornike Arveladze Dinamo Batumi Aktiv 92 / 99 40% 3 02.10.2027 -
Santiago Guzmán Wanderers Aktiv 109 / 95 40% 1 28.09.2027 -
Johnmark Atule Shooting Stars Aktiv 89 / 109 40% 2 23.09.2027 -
Tamaz Makatsaria Samtredia Aktiv 91 / 97 40% 1 17.09.2027 -
Tobías Cervera Gimnasia y Esgrima Aktiv 109 / 142 40% 1 03.08.2027 -
Bashiru Usman Niger Tornadoes Aktiv 76 / 58 40% 1 26.07.2027 -
Magomed Nasibov Pobeda Aktiv 79 / 71 40% 7 30.05.2027 -
Lorenzo Maasland Casarano Aktiv 85 / 113 40% 1 29.05.2027 -
Kirill Danilin Ural Aktiv 109 / 118 40% 2 28.05.2027 -
Ruslan Apekov Torpedo Moscow Aktiv 106 / 92 40% 4 26.05.2027 -
André Miranda Porto Aktiv 107 / 86 40% 1 25.05.2027 -
Daniil Penchikov Arsenal Tula Aktiv 100 / 80 40% 1 22.05.2027 -
Artem Stepanovich Sevastopol Aktiv 82 / 72 40% 2 17.05.2027 -
Danil Akhatov Ufa Aktiv 79 / 105 40% 5 11.05.2027 -
Thom van Bergen Groningen Aktiv 118 / 131 40% 2 11.05.2027 -
Ítalo Ural Aktiv 114 / 107 40% 1 10.05.2027 -
Daniil Agureev Amkar Aktiv 88 / 97 40% 5 08.05.2027 -
Stanislav Biblyk Chaika Aktiv 93 / 106 40% 5 08.05.2027 -
Sergey Gaiduk Salyut Aktiv 66 / 102 40% 1 06.05.2027 -
Víctor Guzmán Sporting CP Aktiv 84 / 88 40% 2 01.05.2027 -
Gevork Sarkisyan Saturn Aktiv 79 / 74 40% 1 01.05.2027 -
Martin Sekulić Ural Aktiv 112 / 91 67% 8 30.04.2027 Beobachten
Rüstəm Əhmədzadə Sumgayit Aktiv 104 / 123 40% 1 29.04.2027 -
Igor Shkolik SKA Khabarovsk Aktiv 97 / 107 40% 1 29.04.2027 -
Darío Ramírez Real Sociedad Aktiv 79 / 98 40% 2 28.04.2027 -
Gabriel Monjes Hamrun Spartans Aktiv 101 / 98 40% 2 26.04.2027 -
Anton Betyuzhnov Dinamo Vologda Aktiv 93 / 77 40% 3 24.04.2027 -
Ilja Safronov Rotor Aktiv 91 / 80 40% 5 23.04.2027 -
Giuseppe D'Agostino Giugliano Aktiv 84 / 99 40% 1 14.04.2027 -
Daniil Kondrakov KDV Tomsk Aktiv 107 / 98 40% 1 14.04.2027 -
Romelu Meunier KV Oostende Aktiv 88 / 76 40% 1 12.04.2027 -
Đorđe Pantelić Spartak Kostroma Aktiv 92 / 116 40% 2 09.04.2027 -
Nuri Abdokov Fakel Aktiv 89 / 113 40% 1 07.04.2027 -
Pablo García Gijón Aktiv 106 / 117 40% 1 06.04.2027 -
Dmitry Kuptsov Spartak Tambov Aktiv 70 / 74 40% 2 03.04.2027 -
Nikita Pogrebnev Ryazan Aktiv 87 / 83 40% 1 03.04.2027 -
Ekain Orobengoa Real Sociedad Aktiv 107 / 97 40% 5 31.03.2027 -
Darko Todorović Fakel Aktiv 100 / 113 40% 1 31.03.2027 -
Evgeny Voronin Volga Aktiv 97 / 107 40% 1 30.03.2027 -
Vasily Cherov Ufa Aktiv 91 / 92 40% 1 30.03.2027 -
Iker Pozo Rodina Aktiv 124 / 99 40% 2 27.03.2027 -
Mikhail Gainov Dinamo Stavropol Aktiv 73 / 88 40% 1 15.03.2027 -
Sergey Gribov Dinamo Bryansk Aktiv 88 / 107 40% 1 11.03.2027 -
Leo Goglichidze Rodina Aktiv 115 / 97 40% 1 10.03.2027 -
Dawid Polkowski Feniks Aktiv 77 / 81 40% 1 07.03.2027 -
Garrik Levin Chelyabinsk Aktiv 98 / 102 40% 1 05.03.2027 -
Mevran Ablak Angusht Aktiv 64 / 72 40% 2 01.03.2027 -
Rashid Magomedov Neftekhimik Aktiv 79 / 107 40% 2 28.02.2027 -
Kirill Cheburakov Rostov Aktiv 67 / 58 40% 1 21.02.2027 -
Yeangel Montero Naxxar Lions Aktiv 98 / 114 40% 2 12.02.2027 -
Miloš Jovičić Zabbar St. Patrick Aktiv 94 / 116 40% 3 10.02.2027 -
Patrick Schmidt Tarxien Rainbows Aktiv 93 / 112 40% 2 10.02.2027 -
Shaft Brewer Valletta Aktiv 79 / 108 40% 1 06.02.2027 -
Timofey Shipunov Ufa Aktiv 93 / 100 40% 1 05.02.2027 -
Franklin Sasere Birkirkara Aktiv 102 / 102 40% 1 03.02.2027 -
Nikolay Boyarkin Salyut Aktiv 87 / 72 40% 1 03.02.2027 -
Ramazan Gadjimuradov Chelyabinsk Aktiv 106 / 113 40% 1 02.02.2027 -
Nikita Kireev Dinamo Vologda Aktiv 72 / 102 40% 1 02.02.2027 -
Pavel Popov Volna Aktiv 68 / 76 40% 3 01.02.2027 -
Robert Murić Floriana Aktiv 107 / 118 40% 3 25.01.2027 -
Zurab Gigashvili Samtredia Aktiv 63 / 60 58% 1 18.01.2027 -
Renat Garayev AZAL Aktiv 107 / 111 40% 2 28.12.2026 -
Alexandr Yushin Torpedo Moscow Aktiv 91 / 105 40% 1 27.12.2026 -
Davit Volkovi Zira Aktiv 125 / 113 40% 2 24.12.2026 -
Jacobo Alcalde SKA Khabarovsk Aktiv 88 / 103 40% 1 20.12.2026 -
Diamanka Senghor Mosta Aktiv 82 / 84 40% 1 19.12.2026 -
Maxim Kutovoy Salyut Aktiv 91 / 66 40% 1 17.12.2026 -
Damir Céter Hamrun Spartans Aktiv 93 / 85 40% 3 15.12.2026 -
Shota Shekiladze Dila Aktiv 112 / 110 40% 3 13.12.2026 -
Ilja Gruznov Khimik Aktiv 91 / 87 40% 1 13.12.2026 -
Kirill Burykin Amkar Aktiv 75 / 82 40% 1 08.12.2026 -
Migran Ageyan Ufa Aktiv 86 / 78 40% 1 07.12.2026 -
Jere Vrcić Birkirkara Aktiv 75 / 83 40% 1 03.12.2026 -
Israel Emmanuel Hamrun Spartans Aktiv 70 / 66 40% 2 25.11.2026 -
Denis Rubanov Dinamo Stavropol Aktiv 98 / 67 40% 1 25.11.2026 -
Dmitry Lesnikov Volgar Aktiv 97 / 93 40% 1 23.11.2026 -
Daniel Udoh Salford City Aktiv 110 / 99 40% 1 23.11.2026 -
David Karaev KAMAZ Aktiv 92 / 88 40% 2 22.11.2026 -
Imran Oulad Omar Dinamo Batumi Aktiv 110 / 133 40% 3 18.11.2026 -
Denzel Jubitana Neftchi Aktiv 120 / 102 40% 2 18.11.2026 -
Alan Tsaraev Arsenal Tula Aktiv 93 / 115 40% 1 17.11.2026 -
Elliot Bonds Fleetwood Town Aktiv 98 / 118 40% 1 17.11.2026 -
Paul Mbong Floriana Aktiv 108 / 116 40% 1 15.11.2026 -
Alexandr Lomovitskiy Torpedo-BelAZ Aktiv 99 / 115 40% 1 03.11.2026 -
Hakeeb Adelakun Doncaster Rovers Aktiv 94 / 85 40% 2 02.11.2026 -
Maximiliano Gómez Nacional Aktiv 127 / 111 40% 1 02.11.2026 -
Alassana Jatta Notts County Aktiv 94 / 97 40% 1 22.10.2026 -
Elliot Collier Saburtalo Aktiv 108 / 87 40% 2 19.10.2026 -
Yegor Kortsov Dinamo Brest Aktiv 106 / 90 40% 1 11.10.2026 -
Dmitri Mandrîcenco Dinamo Batumi Aktiv 104 / 106 40% 1 11.10.2026 -
Sam Nombe Milton Keynes Dons Aktiv 106 / 117 40% 1 08.10.2026 -
David Ozoh Derby County Aktiv 117 / 128 40% 1 06.10.2026 -
Nikoloz Mali Dila Aktiv 106 / 117 40% 1 05.10.2026 -
Tom Pearce Chesterfield Aktiv 116 / 119 40% 1 05.10.2026 -
Johnly Yfeko Exeter City Aktiv 90 / 106 40% 1 03.10.2026 -
Nika Kalandarishvili Dinamo Batumi Aktiv 102 / 80 40% 1 02.10.2026 -
Vagner Gonçalves Nogueira Kolkheti Aktiv 112 / 87 40% 1 01.10.2026 -
Paris Psaltis Dinamo Tbilisi Aktiv 91 / 81 40% 1 30.09.2026 -
Alex Pattison Walsall Aktiv 105 / 87 40% 1 29.09.2026 -
Manprit Sarkaria Austria Wien Aktiv 112 / 92 40% 1 29.09.2026 -
Bence Gergényi Lokomotivi Aktiv 110 / 89 40% 1 27.09.2026 -
Fede Varela Floriana Aktiv 103 / 90 40% 1 26.09.2026 -
Felipe Pires Torpedo Kutaisi Aktiv 97 / 115 40% 1 25.09.2026 -
Ibrahim Alhassan Saburtalo Aktiv 106 / 93 40% 1 24.09.2026 -
Giorgi Kharaishvili Dinamo Tbilisi Aktiv 106 / 107 40% 1 24.09.2026 -
Tedo Kikabidze Dila Aktiv 100 / 96 40% 1 23.09.2026 -
Jaïro Riedewald Sheffield United Aktiv 139 / 139 40% 1 22.09.2026 -
Jonathan Farías Torpedo Kutaisi Aktiv 112 / 101 40% 1 22.09.2026 -
Lander Astiazarán Real Sociedad Aktiv 112 / 118 40% 1 16.09.2026 -
Welton Júnior Dinamo Tbilisi Aktiv 90 / 111 40% 1 14.09.2026 -
Franco Sivetti Gimnasia y Tiro Aktiv 111 / 82 40% 1 14.09.2026 -
Francisco Perruzzi Aldosivi Aktiv 116 / 118 40% 1 11.09.2026 -
Steven Alfred Torpedo-BelAZ Aktiv 109 / 107 40% 1 10.09.2026 -
Alexis Dulón Huracán Aktiv 95 / 75 40% 1 08.09.2026 -
Kekuta Manneh Samtredia Aktiv 91 / 87 40% 1 07.09.2026 -
Tomás Galván River Plate Aktiv 134 / 105 40% 1 07.09.2026 -
Mariano Bracamonte Deportivo Riestra Aktiv 138 / 102 40% 1 07.09.2026 -
Algassime Bah Dinamo Tbilisi Aktiv 101 / 90 40% 1 02.09.2026 -
Charles Vernam Grimsby Town Aktiv 118 / 114 40% 2 31.08.2026 -
Agustín Obregón River Plate Aktiv 104 / 142 40% 1 24.08.2026 -
Nazareno Roselli Defensa y Justicia Aktiv 94 / 137 40% 1 18.08.2026 -
Giorgi Todua Lokomotivi Aktiv 45 / 51 51% 1 10.08.2026 -
Tomás Fernández Aldosivi Aktiv 112 / 132 40% 1 01.08.2026 -